#dbistima — V2PX5 — position and weather

sailwx.info

Track history (hours):
 
Tides and Currents Weather Stations Pressure Air Temp Water Temp Dewpoint Dewpoint Depression Visibility Wind Speed Wind Dir Waves Ship Positions

#dbistima

Last reported at 2014-Sep-02 18:33 UTC. Time now 2014-Sep-03 00:00 UTC.
Position N 54°11' W 005°16'.

MMSI: 304010972.

Date/timePositionNaut miles runAvg speedWind from/ knotsBaromVisibWave heightAir tempDewpointWater temp
2014-Sep-02 18:33N 54°11' W 005°16'1010.3
2014-Sep-02 17:33N 54°21' W 005°14'10 9.7
2014-Sep-02 16:33N 54°30' W 005°18'1010.4
2014-Sep-02 15:33N 54°40' W 005°26'9 8.8
2014-Sep-02 14:33N 54°42' W 005°40'9 8.4
2014-Sep-02 13:28N 54°37' W 005°54'0 0.1
2014-Sep-02 07:05N 54°37' W 005°54'0 0.0
2014-Sep-01 18:13N 54°37' W 005°54'0 0.0
2014-Sep-01 02:26N 54°37' W 005°54'0 0.0
2014-Aug-31 21:08N 54°37' W 005°54'0 0.0
2014-Aug-31 15:26N 54°37' W 005°54'0 0.0
2014-Aug-31 03:20N 54°37' W 005°54'0 0.0
2014-Aug-31 02:32N 54°37' W 005°54'0 0.0
2014-Aug-31 01:32N 54°37' W 005°54'0 0.0
2014-Aug-31 00:26N 54°37' W 005°54'0 0.0
2014-Aug-30 15:20N 54°37' W 005°54'0 0.0
2014-Aug-30 14:26N 54°37' W 005°54'0 0.0
2014-Aug-30 13:29N 54°37' W 005°54'0 0.0
2014-Aug-30 12:32N 54°37' W 005°54'0 0.0
2014-Aug-30 03:14N 54°37' W 005°54'0 0.0
2014-Aug-30 02:08N 54°37' W 005°54'0 0.0
2014-Aug-30 01:32N 54°37' W 005°54'1 0.0
2014-Aug-28 23:27N 54°38' W 005°53'7 8.2
2014-Aug-28 22:34N 54°42' W 005°43'2 1.9
2014-Aug-28 21:33N 54°42' W 005°40'0 0.0
2014-Aug-28 20:30N 54°42' W 005°40'0 0.0
2014-Aug-28 19:33N 54°42' W 005°40'0 0.0
2014-Aug-28 18:33N 54°42' W 005°40'0 0.0
2014-Aug-28 17:33N 54°42' W 005°40'0 0.0
2014-Aug-28 16:30N 54°42' W 005°40'0 0.0
2014-Aug-28 15:33N 54°42' W 005°40'0 0.0
2014-Aug-28 14:33N 54°42' W 005°40'0 0.0
2014-Aug-28 13:33N 54°42' W 005°40'0 0.0
2014-Aug-28 12:33N 54°42' W 005°40'0 0.0
2014-Aug-28 11:33N 54°42' W 005°40'0 0.1
2014-Aug-28 10:33N 54°42' W 005°40'0 0.0
2014-Aug-28 09:30N 54°42' W 005°40'0 0.0
2014-Aug-28 08:33N 54°42' W 005°40'0 0.0
2014-Aug-28 07:33N 54°42' W 005°40'0 0.1
2014-Aug-28 06:33N 54°42' W 005°40'0 0.0
2014-Aug-28 05:33N 54°42' W 005°40'0 0.0
2014-Aug-28 04:30N 54°42' W 005°40'0 0.0
2014-Aug-28 03:30N 54°42' W 005°40'0 0.0
2014-Aug-28 02:33N 54°42' W 005°40'0 0.0
2014-Aug-28 01:33N 54°42' W 005°40'0 0.0
2014-Aug-28 00:33N 54°42' W 005°40'0 0.0
2014-Aug-27 23:33N 54°42' W 005°40'0 0.0
2014-Aug-27 22:30N 54°42' W 005°40'0 0.0
2014-Aug-27 21:27N 54°42' W 005°40'0 0.0
2014-Aug-27 20:33N 54°42' W 005°40'0 0.0
2014-Aug-27 19:30N 54°42' W 005°40'0 0.0
2014-Aug-27 18:30N 54°42' W 005°40'0 0.0
2014-Aug-27 17:33N 54°42' W 005°40'0 0.0
2014-Aug-27 16:33N 54°42' W 005°40'0 0.0
2014-Aug-27 15:33N 54°42' W 005°40'0 0.0
2014-Aug-27 14:33N 54°42' W 005°40'0 0.0
2014-Aug-27 13:33N 54°42' W 005°40'0 0.0
2014-Aug-27 12:30N 54°42' W 005°40'0 0.0
2014-Aug-27 11:33N 54°42' W 005°40'0 0.0
2014-Aug-27 10:33N 54°42' W 005°40'0 0.0
2014-Aug-27 09:30N 54°42' W 005°40'0 0.0
2014-Aug-27 08:33N 54°42' W 005°40'0 0.0
2014-Aug-27 07:33N 54°42' W 005°40'0 0.0
2014-Aug-27 06:33N 54°42' W 005°40'0 0.0
2014-Aug-27 05:33N 54°42' W 005°40'0 0.0
2014-Aug-27 04:30N 54°42' W 005°40'0 0.0
2014-Aug-27 03:33N 54°42' W 005°40'0 0.0
2014-Aug-27 02:33N 54°42' W 005°40'0 0.0
2014-Aug-27 01:33N 54°42' W 005°40'0 0.0
2014-Aug-27 00:30N 54°42' W 005°40'0 0.0
2014-Aug-26 23:33N 54°42' W 005°40'0 0.0
2014-Aug-26 22:30N 54°42' W 005°40'0 0.0
2014-Aug-26 21:33N 54°42' W 005°40'0 0.0
2014-Aug-26 20:33N 54°41' W 005°40'2 1.5
2014-Aug-26 19:33N 54°43' W 005°40'1211.3
2014-Aug-26 18:31N 54°55' W 005°38'21 9.4
2014-Aug-26 16:17N 55°13' W 005°57'5 6.7
2014-Aug-26 15:33N 55°17' W 006°02'6 6.4
2014-Aug-26 14:33N 55°21' W 006°10'7 7.5
2014-Aug-26 13:33N 55°25' W 006°21'8 8.3
2014-Aug-26 12:33N 55°32' W 006°30'9 9.1
2014-Aug-26 11:33N 55°39' W 006°40'148 9.2
2014-Aug-25 19:23N 58°06' W 006°04'810.1
2014-Aug-25 18:33N 58°12' W 005°54'1010.4
2014-Aug-25 17:33N 58°20' W 005°41'1010.1
2014-Aug-25 16:33N 58°27' W 005°28'3510.6
2014-Aug-25 13:17N 58°43' W 004°29'811.2
2014-Aug-25 12:33N 58°44' W 004°13'1110.8
2014-Aug-25 11:33N 58°44' W 003°52'1010.0
2014-Aug-25 10:33N 58°45' W 003°33'11 8.1
2014-Aug-25 09:10N 58°44' W 003°11'4 5.9
2014-Aug-25 08:33N 58°43' W 003°05'4 3.9
2014-Aug-25 07:32N 58°42' W 002°57'260 9.2
2014-Aug-24 03:21N 57°48' E 005°07'10 8.2
2014-Aug-24 02:09N 57°46' E 005°25'17 8.8
2014-Aug-24 00:15N 57°42' E 005°55'  
Track history (hours):
 
Tides and Currents Weather Stations Pressure Air Temp Water Temp Dewpoint Dewpoint Depression Visibility Wind Speed Wind Dir Waves Ship Positions

#dbistima

Last reported at 2014-Sep-02 18:33 UTC. Time now 2014-Sep-03 00:00 UTC.
Position N 54°11' W 005°16'.

MMSI: 304010972.

Date/timePositionNaut miles runAvg speedWind from/ knotsBaromVisibWave heightAir tempDewpointWater temp
2014-Sep-02 18:33N 54°11' W 005°16'1010.3
2014-Sep-02 17:33N 54°21' W 005°14'10 9.7
2014-Sep-02 16:33N 54°30' W 005°18'1010.4
2014-Sep-02 15:33N 54°40' W 005°26'9 8.8
2014-Sep-02 14:33N 54°42' W 005°40'9 8.4
2014-Sep-02 13:28N 54°37' W 005°54'0 0.1
2014-Sep-02 07:05N 54°37' W 005°54'0 0.0
2014-Sep-01 18:13N 54°37' W 005°54'0 0.0
2014-Sep-01 02:26N 54°37' W 005°54'0 0.0
2014-Aug-31 21:08N 54°37' W 005°54'0 0.0
2014-Aug-31 15:26N 54°37' W 005°54'0 0.0
2014-Aug-31 03:20N 54°37' W 005°54'0 0.0
2014-Aug-31 02:32N 54°37' W 005°54'0 0.0
2014-Aug-31 01:32N 54°37' W 005°54'0 0.0
2014-Aug-31 00:26N 54°37' W 005°54'0 0.0
2014-Aug-30 15:20N 54°37' W 005°54'0 0.0
2014-Aug-30 14:26N 54°37' W 005°54'0 0.0
2014-Aug-30 13:29N 54°37' W 005°54'0 0.0
2014-Aug-30 12:32N 54°37' W 005°54'0 0.0
2014-Aug-30 03:14N 54°37' W 005°54'0 0.0
2014-Aug-30 02:08N 54°37' W 005°54'0 0.0
2014-Aug-30 01:32N 54°37' W 005°54'1 0.0
2014-Aug-28 23:27N 54°38' W 005°53'7 8.2
2014-Aug-28 22:34N 54°42' W 005°43'2 1.9
2014-Aug-28 21:33N 54°42' W 005°40'0 0.0
2014-Aug-28 20:30N 54°42' W 005°40'0 0.0
2014-Aug-28 19:33N 54°42' W 005°40'0 0.0
2014-Aug-28 18:33N 54°42' W 005°40'0 0.0
2014-Aug-28 17:33N 54°42' W 005°40'0 0.0
2014-Aug-28 16:30N 54°42' W 005°40'0 0.0
2014-Aug-28 15:33N 54°42' W 005°40'0 0.0
2014-Aug-28 14:33N 54°42' W 005°40'0 0.0
2014-Aug-28 13:33N 54°42' W 005°40'0 0.0
2014-Aug-28 12:33N 54°42' W 005°40'0 0.0
2014-Aug-28 11:33N 54°42' W 005°40'0 0.1
2014-Aug-28 10:33N 54°42' W 005°40'0 0.0
2014-Aug-28 09:30N 54°42' W 005°40'0 0.0
2014-Aug-28 08:33N 54°42' W 005°40'0 0.0
2014-Aug-28 07:33N 54°42' W 005°40'0 0.1
2014-Aug-28 06:33N 54°42' W 005°40'0 0.0
2014-Aug-28 05:33N 54°42' W 005°40'0 0.0
2014-Aug-28 04:30N 54°42' W 005°40'0 0.0
2014-Aug-28 03:30N 54°42' W 005°40'0 0.0
2014-Aug-28 02:33N 54°42' W 005°40'0 0.0
2014-Aug-28 01:33N 54°42' W 005°40'0 0.0
2014-Aug-28 00:33N 54°42' W 005°40'0 0.0
2014-Aug-27 23:33N 54°42' W 005°40'0 0.0
2014-Aug-27 22:30N 54°42' W 005°40'0 0.0
2014-Aug-27 21:27N 54°42' W 005°40'0 0.0
2014-Aug-27 20:33N 54°42' W 005°40'0 0.0
2014-Aug-27 19:30N 54°42' W 005°40'0 0.0
2014-Aug-27 18:30N 54°42' W 005°40'0 0.0
2014-Aug-27 17:33N 54°42' W 005°40'0 0.0
2014-Aug-27 16:33N 54°42' W 005°40'0 0.0
2014-Aug-27 15:33N 54°42' W 005°40'0 0.0
2014-Aug-27 14:33N 54°42' W 005°40'0 0.0
2014-Aug-27 13:33N 54°42' W 005°40'0 0.0
2014-Aug-27 12:30N 54°42' W 005°40'0 0.0
2014-Aug-27 11:33N 54°42' W 005°40'0 0.0
2014-Aug-27 10:33N 54°42' W 005°40'0 0.0
2014-Aug-27 09:30N 54°42' W 005°40'0 0.0
2014-Aug-27 08:33N 54°42' W 005°40'0 0.0
2014-Aug-27 07:33N 54°42' W 005°40'0 0.0
2014-Aug-27 06:33N 54°42' W 005°40'0 0.0
2014-Aug-27 05:33N 54°42' W 005°40'0 0.0
2014-Aug-27 04:30N 54°42' W 005°40'0 0.0
2014-Aug-27 03:33N 54°42' W 005°40'0 0.0
2014-Aug-27 02:33N 54°42' W 005°40'0 0.0
2014-Aug-27 01:33N 54°42' W 005°40'0 0.0
2014-Aug-27 00:30N 54°42' W 005°40'0 0.0
2014-Aug-26 23:33N 54°42' W 005°40'0 0.0
2014-Aug-26 22:30N 54°42' W 005°40'0 0.0
2014-Aug-26 21:33N 54°42' W 005°40'0 0.0
2014-Aug-26 20:33N 54°41' W 005°40'2 1.5
2014-Aug-26 19:33N 54°43' W 005°40'1211.3
2014-Aug-26 18:31N 54°55' W 005°38'21 9.4
2014-Aug-26 16:17N 55°13' W 005°57'5 6.7
2014-Aug-26 15:33N 55°17' W 006°02'6 6.4
2014-Aug-26 14:33N 55°21' W 006°10'7 7.5
2014-Aug-26 13:33N 55°25' W 006°21'8 8.3
2014-Aug-26 12:33N 55°32' W 006°30'9 9.1
2014-Aug-26 11:33N 55°39' W 006°40'148 9.2
2014-Aug-25 19:23N 58°06' W 006°04'810.1
2014-Aug-25 18:33N 58°12' W 005°54'1010.4
2014-Aug-25 17:33N 58°20' W 005°41'1010.1
2014-Aug-25 16:33N 58°27' W 005°28'3510.6
2014-Aug-25 13:17N 58°43' W 004°29'811.2
2014-Aug-25 12:33N 58°44' W 004°13'1110.8
2014-Aug-25 11:33N 58°44' W 003°52'1010.0
2014-Aug-25 10:33N 58°45' W 003°33'11 8.1
2014-Aug-25 09:10N 58°44' W 003°11'4 5.9
2014-Aug-25 08:33N 58°43' W 003°05'4 3.9
2014-Aug-25 07:32N 58°42' W 002°57'260 9.2
2014-Aug-24 03:21N 57°48' E 005°07'10 8.2
2014-Aug-24 02:09N 57°46' E 005°25'17 8.8
2014-Aug-24 00:15N 57°42' E 005°55'  

Dump ship's entire track history